Biloxi, MS (39530)

1:55 PM CDT on August 27, 2016 (GMT -0500)
Forest Cove | | Change Station

Elev 46 ft 30.44 °N, 88.91 °W | Updated 1 minute ago

Heavy Rain
Heavy Rain
83.3 °F
Feels Like 92 °F
N
1.7
Wind Variable Wind from WSW

Today
High -- | Low -- °F
--% Chance of Precip.
Yesterday
High -- | Low -- °F
Precip. -- in
Pressure 29.98 in
Visibility 1.5 miles
Clouds Few 2800 ft
Scattered Clouds 4200 ft
Mostly Cloudy 6000 ft
Mostly Cloudy 10000 ft
Heat Index 92 °F
Dew Point 76 °F
Humidity 80%
Rainfall 0.04 in
Snow Depth Not available.
6:29 AM 7:23 PM
Waning Crescent, 22% visible
SPECI KBIX 271851Z AUTO 12012G25KT 1 1/2SM +RA FEW028 SCT042 BKN060 BKN100 27/25 A2998 RMK AO2 VIS 1 1/2V9 RAB41
Pressure 29.98 in
Visibility 1.5 miles
Clouds Few 2800 ft
Scattered Clouds 4200 ft
Mostly Cloudy 6000 ft
Mostly Cloudy 10000 ft
Heat Index 92 °F
Dew Point 76 °F
Humidity 80%
Rainfall 0.04 in
Snow Depth Not available.
6:29 AM 7:23 PM
Waning Crescent, 22% visible
SPECI KBIX 271851Z AUTO 12012G25KT 1 1/2SM +RA FEW028 SCT042 BKN060 BKN100 27/25 A2998 RMK AO2 VIS 1 1/2V9 RAB41

10-Day Weather Forecast

Almanac

Astronomy

Aug. 27, 2016 Rise Set
Actual Time
Civil Twilight
Nautical Twilight
Astronomical Twilight
Moon
Length of Visible Light
Length of Day
Tomorrow will be .
, % of the Moon is Illuminated

Today's Extremes

State Highs State Lows

Community

WunderPhotos

Upload Photos

1,935,399 photos uploaded!

WunderBlog® & News

Nearby

Air Quality

  Air Quality AQ Index Pollutant
Not available.

Snow Depth

Station Depth Elevation

Earthquake Activity

City Distance Mag. Time & Date
Minimum magnitude displayed is 2.5.

Coastal Water Temperatures

Place Temperature

Stations

Nearby Weather Stations

Station Location Temp. Windchill Dew Point Humidity Wind Precip. Elev Updated Type
                   

Watches & Warnings

There are currently no watches in effect.